Time;durP1;ratioP1;P1;durP2;ratioP2;P2;SDS_P1;SDS_P2;PMS_P1;PMS_P2;Temp;Humidity;BMP_temperature;BMP_pressure;BME280_temperature;BME280_humidity;BME280_pressure;Samples;Min_cycle;Max_cycle;Signal;HPM_P1;HPM_P2
2022/09/10 00:01:59;;;;;;;;;;;;;;;14.13;100.00;100867.88;5031277;28;20010;-43
2022/09/10 00:04:24;;;;;;;;;;;;;;;14.12;100.00;100863.50;5034195;28;20021;-45
2022/09/10 00:06:50;;;;;;;;;;;;;;;14.14;100.00;100862.31;5035678;28;19909;-44
2022/09/10 00:09:15;;;;;;;;;;;;;;;14.15;100.00;100855.94;5067858;28;19913;-44
2022/09/10 00:11:41;;;;;;;;;;;;;;;14.14;100.00;100853.44;5035830;28;20003;-45
2022/09/10 00:14:08;;;;;;;;;;;;;;;14.16;100.00;100848.72;5035651;28;20343;-43
2022/09/10 00:16:33;;;;;;;;;;;;;;;14.16;100.00;100848.72;5035022;28;19912;-45
2022/09/10 00:19:00;;;;;;;;;;;;;;;14.13;100.00;100847.22;5033876;28;19915;-42
2022/09/10 00:21:25;;;;;;;;;;;;;;;14.12;100.00;100840.19;5024543;28;19913;-46
2022/09/10 00:23:50;;;;;;;;;;;;;;;14.08;100.00;100838.88;5030479;28;20469;-43
2022/09/10 00:26:15;;;;;;;;;;;;;;;14.14;100.00;100850.75;5025578;28;20236;-46
2022/09/10 00:28:41;;;;;;;;;;;;;;;14.14;100.00;100851.56;5035231;28;20306;-46
2022/09/10 00:31:06;;;;;;;;;;;;;;;14.14;100.00;100846.19;5027895;28;19958;-45
2022/09/10 00:33:31;;;;;;;;;;;;;;;14.16;100.00;100852.22;5020175;28;20495;-42
2022/09/10 00:35:57;;;;;;;;;;;;;;;14.18;100.00;100842.13;5027328;28;19913;-43
2022/09/10 00:38:22;;;;;;;;;;;;;;;14.20;100.00;100850.00;5030124;28;20007;-42
2022/09/10 00:40:48;;;;;;;;;;;;;;;14.21;100.00;100859.72;5031167;28;20652;-43
2022/09/10 00:43:15;;;;;;;;;;;;;;;14.22;100.00;100850.63;5035763;28;20421;-45
2022/09/10 00:45:40;;;;;;;;;;;;;;;14.22;100.00;100852.50;5034799;28;19917;-41
2022/09/10 00:48:13;;;;;;;;;;;;;;;14.22;100.00;100847.94;5026914;28;19936;-43
2022/09/10 00:50:39;;;;;;;;;;;;;;;14.23;100.00;100846.13;5026353;28;19920;-46
2022/09/10 00:53:07;;;;;;;;;;;;;;;14.26;100.00;100853.81;5030483;28;19967;-44
2022/09/10 00:55:33;;;;;;;;;;;;;;;14.24;100.00;100847.78;5032641;28;19909;-43
2022/09/10 00:58:00;;;;;;;;;;;;;;;14.25;100.00;100849.44;5019124;28;20328;-46
2022/09/10 01:00:25;;;;;;;;;;;;;;;14.25;100.00;100855.63;5034105;28;19916;-42
2022/09/10 01:02:51;;;;;;;;;;;;;;;14.25;100.00;100854.81;5033412;28;20453;-43
2022/09/10 01:05:17;;;;;;;;;;;;;;;14.25;100.00;100858.34;5031733;28;19912;-45
2022/09/10 01:07:42;;;;;;;;;;;;;;;14.26;100.00;100856.50;5016856;28;20378;-44
2022/09/10 01:10:13;;;;;;;;;;;;;;;14.26;100.00;100860.00;5032133;28;19921;-43
2022/09/10 01:12:38;;;;;;;;;;;;;;;14.28;100.00;100860.66;5028106;28;20035;-41
2022/09/10 01:15:23;;;;;;;;;;;;;;;14.27;100.00;100855.47;5034435;28;19912;-42
2022/09/10 01:18:07;;;;;;;;;;;;;;;14.32;100.00;100861.13;5019962;28;20412;-44
2022/09/10 01:20:44;;;;;;;;;;;;;;;14.32;100.00;100859.28;5025359;28;20108;-42
2022/09/10 01:23:22;;;;;;;;;;;;;;;14.32;100.00;100855.75;5028844;28;19966;-43
2022/09/10 01:25:57;;;;;;;;;;;;;;;14.32;100.00;100861.13;5021416;28;19974;-44
2022/09/10 01:28:29;;;;;;;;;;;;;;;14.32;100.00;100863.78;5024728;28;20462;-43
2022/09/10 01:30:56;;;;;;;;;;;;;;;14.32;100.00;100863.78;5020924;28;20389;-45
2022/09/10 01:33:28;;;;;;;;;;;;;;;14.30;100.00;100861.28;5025618;28;20396;-43
2022/09/10 01:36:00;;;;;;;;;;;;;;;14.31;100.00;100859.47;5030781;28;19917;-41
2022/09/10 01:38:27;;;;;;;;;;;;;;;14.31;100.00;100862.16;5027415;28;20367;-41
2022/09/10 01:40:54;;;;;;;;;;;;;;;14.29;100.00;100864.16;5030991;28;19916;-43
2022/09/10 01:43:19;;;;;;;;;;;;;;;14.29;100.00;100858.78;5026506;28;19921;-44
2022/09/10 01:45:55;;;;;;;;;;;;;;;14.28;100.00;100866.03;5032836;28;20283;-46
2022/09/10 01:48:27;;;;;;;;;;;;;;;14.23;100.00;100856.88;5033184;28;19913;-41
2022/09/10 01:51:07;;;;;;;;;;;;;;;14.22;100.00;100861.38;5026813;28;19913;-44
2022/09/10 01:53:46;;;;;;;;;;;;;;;14.21;100.00;100858.91;5015680;28;20379;-43
2022/09/10 01:56:34;;;;;;;;;;;;;;;14.21;100.00;100857.03;5030279;28;19912;-44
2022/09/10 01:59:02;;;;;;;;;;;;;;;14.23;100.00;100859.53;5024076;28;20155;-43
2022/09/10 02:02:00;;;;;;;;;;;;;;;14.24;100.00;100851.31;5029522;28;19932;-42
2022/09/10 02:04:27;;;;;;;;;;;;;;;14.23;100.00;100855.00;5009538;28;20004;-44
2022/09/10 02:06:53;;;;;;;;;;;;;;;14.21;100.00;100848.97;5029399;28;19913;-43
2022/09/10 02:09:19;;;;;;;;;;;;;;;14.24;100.00;100851.31;5023739;28;20015;-45
2022/09/10 02:11:46;;;;;;;;;;;;;;;14.24;100.00;100845.06;5031915;28;20130;-45
2022/09/10 02:14:13;;;;;;;;;;;;;;;14.25;100.00;100847.59;5023440;28;19912;-43
2022/09/10 02:16:39;;;;;;;;;;;;;;;14.26;100.00;100846.56;5034019;28;20655;-44
2022/09/10 02:19:05;;;;;;;;;;;;;;;14.28;100.00;100846.41;5024493;28;20532;-43
2022/09/10 02:21:32;;;;;;;;;;;;;;;14.29;100.00;100845.34;5028319;28;19924;-45
2022/09/10 02:24:01;;;;;;;;;;;;;;;14.30;100.00;100839.81;5021060;28;20201;-46
2022/09/10 02:26:26;;;;;;;;;;;;;;;14.30;100.00;100841.66;5031083;28;20297;-46
2022/09/10 02:28:51;;;;;;;;;;;;;;;14.32;100.00;100840.47;5033520;28;19995;-46
2022/09/10 02:31:17;;;;;;;;;;;;;;;14.32;100.00;100834.25;5025221;28;19913;-46
2022/09/10 02:33:42;;;;;;;;;;;;;;;14.32;100.00;100834.25;5026148;28;20047;-45
2022/09/10 02:36:07;;;;;;;;;;;;;;;14.34;100.00;100829.50;5029230;28;19943;-42
2022/09/10 02:38:33;;;;;;;;;;;;;;;14.35;100.00;100836.56;5031453;28;20063;-46
2022/09/10 02:40:58;;;;;;;;;;;;;;;14.33;100.00;100831.38;5031042;28;20557;-47
2022/09/10 02:43:25;;;;;;;;;;;;;;;14.33;100.00;100836.75;5028594;28;19913;-45
2022/09/10 02:45:53;;;;;;;;;;;;;;;14.35;100.00;100839.25;5032902;28;20068;-43
2022/09/10 02:48:18;;;;;;;;;;;;;;;14.35;100.00;100833.88;5032406;28;19913;-43
2022/09/10 02:50:43;;;;;;;;;;;;;;;14.35;100.00;100837.38;5030469;28;20602;-44
2022/09/10 02:53:11;;;;;;;;;;;;;;;14.34;100.00;100838.44;5056204;28;19913;-48
2022/09/10 02:55:36;;;;;;;;;;;;;;;14.35;100.00;100837.38;5024149;28;20223;-43
2022/09/10 02:58:01;;;;;;;;;;;;;;;14.34;100.00;100833.06;5018804;28;19940;-44
2022/09/10 03:00:26;;;;;;;;;;;;;;;14.35;100.00;100836.56;5026346;28;19924;-44
2022/09/10 03:02:51;;;;;;;;;;;;;;;14.36;100.00;100835.56;5019502;28;19913;-45
2022/09/10 03:05:17;;;;;;;;;;;;;;;14.36;100.00;100836.38;5016933;28;20145;-45
2022/09/10 03:07:42;;;;;;;;;;;;;;;14.38;100.00;100846.13;5026651;28;19931;-43
2022/09/10 03:10:08;;;;;;;;;;;;;;;14.41;100.00;100845.72;5023295;28;20281;-44
2022/09/10 03:12:33;;;;;;;;;;;;;;;14.39;100.00;100840.53;5033835;28;19948;-46
2022/09/10 03:14:58;;;;;;;;;;;;;;;14.41;100.00;100840.34;5032376;28;19943;-44
2022/09/10 03:17:24;;;;;;;;;;;;;;;14.40;100.00;100842.22;5021217;28;19912;-43
2022/09/10 03:19:50;;;;;;;;;;;;;;;14.38;100.00;100841.56;5033167;28;19954;-42
2022/09/10 03:22:15;;;;;;;;;;;;;;;14.35;100.00;100840.06;5027837;28;19913;-44
2022/09/10 03:24:41;;;;;;;;;;;;;;;14.34;100.00;100834.88;5019766;28;19994;-44
2022/09/10 03:27:07;;;;;;;;;;;;;;;14.34;100.00;100838.44;5030425;28;19916;-46
2022/09/10 03:29:32;;;;;;;;;;;;;;;14.33;100.00;100835.94;5036226;28;20003;-43
2022/09/10 03:31:57;;;;;;;;;;;;;;;14.35;100.00;100847.31;5036505;28;19916;-46
2022/09/10 03:34:22;;;;;;;;;;;;;;;14.35;100.00;100828.50;5032426;28;19916;-44
2022/09/10 03:36:48;;;;;;;;;;;;;;;14.35;100.00;100839.25;5036301;28;19917;-45
2022/09/10 03:39:13;;;;;;;;;;;;;;;14.35;100.00;100836.56;5035070;28;19998;-45
2022/09/10 03:41:39;;;;;;;;;;;;;;;14.36;100.00;100833.69;5034862;28;19932;-44
2022/09/10 03:44:05;;;;;;;;;;;;;;;14.39;100.00;100835.16;5035343;28;19923;-50
2022/09/10 03:46:30;;;;;;;;;;;;;;;14.39;100.00;100837.03;5034217;28;19928;-46
2022/09/10 03:48:55;;;;;;;;;;;;;;;14.36;100.00;100832.88;5030505;28;19931;-45
2022/09/10 03:51:22;;;;;;;;;;;;;;;14.36;100.00;100836.38;5029534;28;19920;-44
2022/09/10 03:53:47;;;;;;;;;;;;;;;14.37;100.00;100837.22;5027473;28;20299;-44
2022/09/10 03:56:12;;;;;;;;;;;;;;;14.36;100.00;100833.69;5030222;28;19927;-45
2022/09/10 03:58:37;;;;;;;;;;;;;;;14.38;100.00;100830.00;5029989;28;19924;-45
2022/09/10 04:01:03;;;;;;;;;;;;;;;14.39;100.00;100823.59;5029348;28;20429;-43
2022/09/10 04:03:28;;;;;;;;;;;;;;;14.38;100.00;100820.06;5027122;28;19947;-45
2022/09/10 04:05:53;;;;;;;;;;;;;;;14.40;100.00;100826.09;5024638;28;20160;-44
2022/09/10 04:08:19;;;;;;;;;;;;;;;14.41;100.00;100813.47;5025585;28;19917;-44
2022/09/10 04:10:44;;;;;;;;;;;;;;;14.41;100.00;100822.41;5028199;28;19951;-45
2022/09/10 04:13:10;;;;;;;;;;;;;;;14.43;100.00;100816.84;5036851;28;20121;-44
2022/09/10 04:15:36;;;;;;;;;;;;;;;14.46;100.00;100822.66;5032072;28;20059;-45
2022/09/10 04:18:01;;;;;;;;;;;;;;;14.48;100.00;100814.41;5030071;28;19940;-43
2022/09/10 04:20:26;;;;;;;;;;;;;;;14.49;100.00;100816.94;5023073;28;19913;-48
2022/09/10 04:22:52;;;;;;;;;;;;;;;14.50;100.00;100820.44;5035050;28;19916;-45
2022/09/10 04:25:18;;;;;;;;;;;;;;;14.48;100.00;100812.56;5031486;28;20382;-47
2022/09/10 04:27:43;;;;;;;;;;;;;;;14.49;100.00;100811.56;5034443;28;19925;-44
2022/09/10 04:30:09;;;;;;;;;;;;;;;14.50;100.00;100815.06;5025082;28;19908;-44
2022/09/10 04:32:35;;;;;;;;;;;;;;;14.49;100.00;100816.06;5033382;28;19916;-44
2022/09/10 04:35:03;;;;;;;;;;;;;;;14.50;100.00;100812.38;5034075;28;19926;-42
2022/09/10 04:37:29;;;;;;;;;;;;;;;14.48;100.00;100817.94;5033891;28;19920;-44
2022/09/10 04:39:54;;;;;;;;;;;;;;;14.50;100.00;100815.88;5024690;28;19916;-45
2022/09/10 04:42:19;;;;;;;;;;;;;;;14.50;100.00;100817.75;5026671;28;20008;-43
2022/09/10 04:44:45;;;;;;;;;;;;;;;14.50;100.00;100818.56;5033631;28;19920;-43
2022/09/10 04:47:11;;;;;;;;;;;;;;;14.52;100.00;100821.06;5035698;28;20011;-44
2022/09/10 04:49:36;;;;;;;;;;;;;;;14.53;100.00;100828.13;5019042;28;19920;-44
2022/09/10 04:52:01;;;;;;;;;;;;;;;14.52;100.00;100821.91;5025669;28;19919;-44
2022/09/10 04:54:26;;;;;;;;;;;;;;;14.54;100.00;100824.41;5033701;28;20363;-45
2022/09/10 04:56:51;;;;;;;;;;;;;;;14.58;100.00;100825.72;5032622;28;20355;-44
2022/09/10 04:59:17;;;;;;;;;;;;;;;14.58;100.00;100828.41;5029604;28;19924;-44
2022/09/10 05:01:42;;;;;;;;;;;;;;;14.58;100.00;100820.34;5024806;28;19916;-45
2022/09/10 05:04:07;;;;;;;;;;;;;;;14.61;100.00;100819.13;5022327;28;19939;-46
2022/09/10 05:06:32;;;;;;;;;;;;;;;14.61;100.00;100824.53;5028516;28;20720;-43
2022/09/10 05:08:58;;;;;;;;;;;;;;;14.62;100.00;100826.19;5025633;28;19913;-44
2022/09/10 05:11:24;;;;;;;;;;;;;;;14.64;100.00;100824.16;5032824;28;20208;-43
2022/09/10 05:13:49;;;;;;;;;;;;;;;14.64;100.00;100824.16;5034153;28;19973;-43
2022/09/10 05:16:14;;;;;;;;;;;;;;;14.62;100.00;100818.97;5033643;28;20135;-43
2022/09/10 05:18:40;;;;;;;;;;;;;;;14.64;100.00;100821.47;5025395;28;19939;-46
2022/09/10 05:21:05;;;;;;;;;;;;;;;14.63;100.00;100826.00;5033029;28;19936;-44
2022/09/10 05:23:30;;;;;;;;;;;;;;;14.63;100.00;100819.78;5034454;28;19963;-43
2022/09/10 05:25:56;;;;;;;;;;;;;;;14.67;100.00;100831.84;5024209;28;19916;-46
2022/09/10 05:28:22;;;;;;;;;;;;;;;14.66;100.00;100831.00;5029718;28;20121;-42
2022/09/10 05:30:47;;;;;;;;;;;;;;;14.66;100.00;100827.47;5029140;28;19958;-43
2022/09/10 05:33:12;;;;;;;;;;;;;;;14.67;100.00;100824.59;5033640;28;19919;-46
2022/09/10 05:35:37;;;;;;;;;;;;;;;14.67;100.00;100821.09;5020890;28;19921;-45
2022/09/10 05:38:03;;;;;;;;;;;;;;;14.69;100.00;100819.88;5031952;28;19965;-44
2022/09/10 05:40:28;;;;;;;;;;;;;;;14.68;100.00;100825.41;5029407;28;20291;-46
2022/09/10 05:42:53;;;;;;;;;;;;;;;14.71;100.00;100830.44;5034179;28;19976;-47
2022/09/10 05:45:19;;;;;;;;;;;;;;;14.74;100.00;100832.75;5032167;28;20726;-43
2022/09/10 05:47:44;;;;;;;;;;;;;;;14.75;100.00;100823.66;5033774;28;20290;-43
2022/09/10 05:50:10;;;;;;;;;;;;;;;14.77;100.00;100827.00;5019007;28;20390;-42
2022/09/10 05:52:35;;;;;;;;;;;;;;;14.79;100.00;100826.81;5032201;28;19921;-44
2022/09/10 05:55:01;;;;;;;;;;;;;;;14.81;100.00;100832.81;5029084;28;19916;-43
2022/09/10 05:57:26;;;;;;;;;;;;;;;14.77;100.00;100824.31;5030648;28;19913;-44
2022/09/10 05:59:51;;;;;;;;;;;;;;;14.82;100.00;100831.81;5024212;28;19913;-44
2022/09/10 06:02:17;;;;;;;;;;;;;;;14.83;100.00;100831.59;5025487;28;20236;-41
2022/09/10 06:04:42;;;;;;;;;;;;;;;14.85;100.00;100828.72;5018139;28;19928;-44
2022/09/10 06:07:07;;;;;;;;;;;;;;;14.89;100.00;100830.03;5015281;28;20360;-42
2022/09/10 06:09:32;;;;;;;;;;;;;;;14.94;100.00;100829.47;5033035;28;19913;-47
2022/09/10 06:11:58;;;;;;;;;;;;;;;14.98;100.00;100833.44;5033270;28;19908;-45
2022/09/10 06:14:23;;;;;;;;;;;;;;;15.02;100.00;100835.56;5018583;28;19909;-45
2022/09/10 06:16:50;;;;;;;;;;;;;;;15.01;100.00;100841.13;5013567;28;20372;-46
2022/09/10 06:19:15;;;;;;;;;;;;;;;14.98;100.00;100839.63;5017181;28;20260;-46
2022/09/10 06:21:40;;;;;;;;;;;;;;;14.96;100.00;100840.84;5017004;28;19913;-43
2022/09/10 06:24:06;;;;;;;;;;;;;;;14.96;100.00;100841.69;5023438;28;19917;-43
2022/09/10 06:26:31;;;;;;;;;;;;;;;14.94;100.00;100841.03;5020417;28;20348;-48
2022/09/10 06:28:56;;;;;;;;;;;;;;;14.91;100.00;100850.31;5013598;28;20063;-44
2022/09/10 06:31:22;;;;;;;;;;;;;;;14.90;100.00;100851.34;5014064;28;19988;-45
2022/09/10 06:33:50;;;;;;;;;;;;;;;14.90;100.00;100845.13;5014457;28;20117;-46
2022/09/10 06:36:15;;;;;;;;;;;;;;;14.88;100.00;100842.66;5012286;28;19909;-46
2022/09/10 06:38:42;;;;;;;;;;;;;;;14.88;100.00;100849.84;5015064;28;19965;-47
2022/09/10 06:41:10;;;;;;;;;;;;;;;14.88;100.00;100856.09;5014497;28;20173;-43
2022/09/10 06:43:36;;;;;;;;;;;;;;;14.89;100.00;100838.91;5017709;28;19909;-46
2022/09/10 06:46:04;;;;;;;;;;;;;;;14.90;100.00;100850.50;5022645;28;19916;-49
2022/09/10 06:48:30;;;;;;;;;;;;;;;14.87;100.00;100849.03;5022458;28;20478;-45
2022/09/10 06:50:58;;;;;;;;;;;;;;;14.87;100.00;100846.34;5015691;28;19909;-44
2022/09/10 06:53:26;;;;;;;;;;;;;;;14.91;100.00;100849.47;5017430;28;19920;-44
2022/09/10 06:55:51;;;;;;;;;;;;;;;14.97;100.00;100853.25;5016954;28;19920;-46
2022/09/10 06:58:20;;;;;;;;;;;;;;;14.96;100.00;100849.75;5017110;28;20292;-45
2022/09/10 07:00:46;;;;;;;;;;;;;;;15.02;100.00;100857.06;5016407;28;19949;-48
2022/09/10 07:03:15;;;;;;;;;;;;;;;15.08;100.00;100864.34;5015819;28;19984;-43
2022/09/10 07:05:41;;;;;;;;;;;;;;;15.06;100.00;100857.53;5015480;28;20035;-42
2022/09/10 07:08:06;;;;;;;;;;;;;;;15.02;100.00;100854.38;5049052;28;19996;-43
2022/09/10 07:10:32;;;;;;;;;;;;;;;14.96;100.00;100873.13;5034834;28;20026;-46
2022/09/10 07:12:59;;;;;;;;;;;;;;;14.90;100.00;100854.03;5037173;28;19912;-43
2022/09/10 07:15:25;;;;;;;;;;;;;;;14.91;100.00;100861.06;5035856;28;19920;-43
2022/09/10 07:17:50;;;;;;;;;;;;;;;14.93;100.00;100866.25;5036494;28;20383;-44
2022/09/10 07:20:15;;;;;;;;;;;;;;;14.90;100.00;100859.41;5035873;28;19908;-44
2022/09/10 07:22:42;;;;;;;;;;;;;;;14.96;100.00;100860.50;5037132;28;20117;-47
2022/09/10 07:25:07;;;;;;;;;;;;;;;15.00;100.00;100852.88;5035425;28;19925;-45
2022/09/10 07:27:33;;;;;;;;;;;;;;;15.03;100.00;100865.97;5036766;28;19989;-44
2022/09/10 07:29:58;;;;;;;;;;;;;;;15.04;100.00;100868.47;5036027;28;19966;-44
2022/09/10 07:32:23;;;;;;;;;;;;;;;15.07;100.00;100869.94;5035732;28;20485;-45
2022/09/10 07:34:48;;;;;;;;;;;;;;;15.11;100.00;100868.53;5035092;28;20020;-44
2022/09/10 07:37:16;;;;;;;;;;;;;;;15.11;100.00;100871.22;5037544;28;20355;-46
2022/09/10 07:39:41;;;;;;;;;;;;;;;15.18;100.00;100874.81;5036691;28;20319;-45
2022/09/10 07:42:09;;;;;;;;;;;;;;;15.20;100.00;100875.44;5036988;28;20015;-43
2022/09/10 07:44:34;;;;;;;;;;;;;;;15.22;100.00;100872.56;5035751;28;20552;-45
2022/09/10 07:47:00;;;;;;;;;;;;;;;15.25;100.00;100880.28;5035682;28;19944;-45
2022/09/10 07:49:26;;;;;;;;;;;;;;;15.30;100.00;100880.53;5034857;28;19908;-42
2022/09/10 07:51:53;;;;;;;;;;;;;;;15.34;100.00;100889.88;5035951;28;20344;-44
2022/09/10 07:54:18;;;;;;;;;;;;;;;15.39;100.00;100878.53;5035479;28;20267;-44
2022/09/10 07:56:44;;;;;;;;;;;;;;;15.43;100.00;100894.13;5036879;28;20004;-45
2022/09/10 07:59:09;;;;;;;;;;;;;;;15.44;100.00;100885.03;5031472;28;19996;-44
2022/09/10 08:01:35;;;;;;;;;;;;;;;15.48;100.00;100888.16;5035877;28;19971;-45
2022/09/10 08:04:01;;;;;;;;;;;;;;;15.52;100.00;100891.31;5034240;28;19912;-45
2022/09/10 08:06:26;;;;;;;;;;;;;;;15.59;100.00;100893.00;5033481;28;20272;-44
2022/09/10 08:08:51;;;;;;;;;;;;;;;15.69;100.00;100903.47;5022061;28;20084;-42
2022/09/10 08:11:17;;;;;;;;;;;;;;;15.81;100.00;100910.03;5035077;28;19924;-43
2022/09/10 08:13:44;;;;;;;;;;;;;;;15.98;100.00;100899.78;5035964;28;19923;-43
2022/09/10 08:16:11;;;;;;;;;;;;;;;16.21;100.00;100904.94;5035783;28;19939;-43
2022/09/10 08:18:36;;;;;;;;;;;;;;;16.35;100.00;100908.56;5034608;28;19928;-43
2022/09/10 08:21:03;;;;;;;;;;;;;;;16.49;100.00;100908.66;5032223;28;19917;-45
2022/09/10 08:23:28;;;;;;;;;;;;;;;16.57;100.00;100908.50;5035568;28;20203;-45
2022/09/10 08:25:54;;;;;;;;;;;;;;;16.64;100.00;100914.75;5035073;28;19960;-44
2022/09/10 08:28:20;;;;;;;;;;;;;;;16.68;100.00;100921.38;5035922;28;20006;-46
2022/09/10 08:31:03;;;;;;;;;;;;;;;16.70;100.00;100918.50;5035297;28;19913;-44
2022/09/10 08:33:28;;;;;;;;;;;;;;;16.81;100.00;100930.59;5034449;28;20516;-47
2022/09/10 08:35:58;;;;;;;;;;;;;;;16.92;100.00;100935.44;5033609;28;20219;-44
2022/09/10 08:38:24;;;;;;;;;;;;;;;16.98;100.00;100934.66;5035156;28;20114;-46
2022/09/10 08:40:50;;;;;;;;;;;;;;;17.00;100.00;100937.16;5035077;28;20104;-45
2022/09/10 08:43:16;;;;;;;;;;;;;;;17.10;100.00;100946.50;5035796;28;20030;-44
2022/09/10 08:45:49;;;;;;;;;;;;;;;17.18;100.00;100950.91;5035387;28;19917;-44
2022/09/10 08:48:19;;;;;;;;;;;;;;;17.18;100.00;100945.53;5033934;28;20050;-43
2022/09/10 08:50:56;;;;;;;;;;;;;;;17.04;100.00;100949.19;5033804;28;19924;-45
2022/09/10 08:53:39;;;;;;;;;;;;;;;16.89;100.00;100957.44;5034803;28;19963;-43
2022/09/10 08:56:10;;;;;;;;;;;;;;;16.75;100.00;100964.56;5034925;28;19912;-43
2022/09/10 08:58:44;;;;;;;;;;;;;;;16.64;100.00;100959.75;5033068;28;19916;-47
2022/09/10 09:01:16;;;;;;;;;;;;;;;16.53;100.00;100959.28;5034370;28;20282;-45
2022/09/10 09:03:44;;;;;;;;;;;;;;;16.50;100.00;100961.53;5033796;28;19905;-47
2022/09/10 09:06:35;;;;;;;;;;;;;;;16.51;100.00;100963.19;5032941;28;19940;-45
2022/09/10 09:09:02;;;;;;;;;;;;;;;16.57;100.00;100959.72;5032567;28;19959;-43
2022/09/10 09:11:30;;;;;;;;;;;;;;;16.62;100.00;100962.66;5033342;28;20263;-46
2022/09/10 09:14:07;;;;;;;;;;;;;;;16.59;100.00;100969.25;5034234;28;19935;-42
2022/09/10 09:16:43;;;;;;;;;;;;;;;16.56;100.00;100971.53;5033646;28;19912;-42
2022/09/10 09:19:13;;;;;;;;;;;;;;;16.55;100.00;100975.25;5032030;28;19913;-43
2022/09/10 09:21:51;;;;;;;;;;;;;;;16.60;100.00;100970.94;5033899;28;20545;-44
2022/09/10 09:24:21;;;;;;;;;;;;;;;16.81;100.00;100969.19;5035067;28;19918;-43
2022/09/10 09:26:47;;;;;;;;;;;;;;;16.99;100.00;100965.16;5034431;28;20438;-44
2022/09/10 09:29:21;;;;;;;;;;;;;;;17.14;100.00;100980.19;5034424;28;19955;-43
2022/09/10 09:31:49;;;;;;;;;;;;;;;17.36;100.00;100974.63;5033336;28;19913;-45
2022/09/10 09:34:35;;;;;;;;;;;;;;;17.61;100.00;100979.50;5033594;28;19909;-44
2022/09/10 09:37:10;;;;;;;;;;;;;;;17.79;100.00;100970.81;5034027;28;20253;-45
2022/09/10 09:39:40;;;;;;;;;;;;;;;17.78;100.00;100982.63;5033981;28;19909;-45
2022/09/10 09:42:05;;;;;;;;;;;;;;;17.70;100.00;100978.25;5034407;28;20118;-44
2022/09/10 09:44:35;;;;;;;;;;;;;;;17.62;100.00;100968.47;5033386;28;20337;-46
2022/09/10 09:47:00;;;;;;;;;;;;;;;17.56;100.00;100972.00;5033396;28;20090;-43
2022/09/10 09:49:26;;;;;;;;;;;;;;;17.53;100.00;100975.94;5032093;28;19973;-43
2022/09/10 09:51:52;;;;;;;;;;;;;;;17.57;100.00;100970.97;5033451;28;19909;-44
2022/09/10 09:54:20;;;;;;;;;;;;;;;17.77;100.00;100972.84;5033912;28;20283;-45
2022/09/10 09:56:48;;;;;;;;;;;;;;;18.11;100.00;100979.16;5034239;28;20788;-45
2022/09/10 09:59:25;;;;;;;;;;;;;;;18.37;100.00;100972.91;5028414;28;20418;-46
2022/09/10 10:01:51;;;;;;;;;;;;;;;18.55;100.00;100974.97;5020430;28;20372;-46
2022/09/10 10:04:20;;;;;;;;;;;;;;;18.56;100.00;100963.94;5033383;28;20299;-44
2022/09/10 10:06:51;;;;;;;;;;;;;;;18.56;100.00;100958.53;5031120;28;20548;-43
2022/09/10 10:09:19;;;;;;;;;;;;;;;18.61;100.00;100974.13;5022703;28;20232;-45
2022/09/10 10:11:49;;;;;;;;;;;;;;;18.60;100.00;100976.00;5034287;28;19920;-47
2022/09/10 10:14:18;;;;;;;;;;;;;;;18.82;100.00;101000.09;5033971;28;19916;-45
2022/09/10 10:16:47;;;;;;;;;;;;;;;18.81;100.00;101001.16;5032650;28;19912;-45
2022/09/10 10:19:30;;;;;;;;;;;;;;;18.73;100.00;101009.47;5033379;28;20019;-43
2022/09/10 10:21:58;;;;;;;;;;;;;;;18.56;100.00;100984.75;5032715;28;20267;-43
2022/09/10 10:24:30;;;;;;;;;;;;;;;18.50;100.00;100972.91;5033120;28;19923;-44
2022/09/10 10:26:57;;;;;;;;;;;;;;;18.38;100.00;100972.72;5033966;28;19982;-45
2022/09/10 10:29:22;;;;;;;;;;;;;;;18.22;100.00;100982.06;5033263;28;20565;-46
2022/09/10 10:31:49;;;;;;;;;;;;;;;18.11;100.00;100992.66;5032823;28;20019;-46
2022/09/10 10:34:40;;;;;;;;;;;;;;;17.94;100.00;101000.34;5033273;28;19913;-45
2022/09/10 10:37:14;;;;;;;;;;;;;;;17.68;100.00;101002.78;5032938;28;19915;-48
2022/09/10 10:39:40;;;;;;;;;;;;;;;17.52;100.00;101011.25;5033602;28;19909;-46
2022/09/10 10:42:12;;;;;;;;;;;;;;;17.37;100.00;101015.97;5033658;28;19966;-46
2022/09/10 10:44:56;;;;;;;;;;;;;;;17.18;100.00;101018.38;5032823;28;20102;-44
2022/09/10 10:47:44;;;;;;;;;;;;;;;16.95;100.00;101014.13;5032966;28;19963;-47
2022/09/10 10:50:17;;;;;;;;;;;;;;;16.84;100.00;101017.38;5021197;28;20375;-44
2022/09/10 10:52:48;;;;;;;;;;;;;;;16.77;100.00;101011.09;5029100;28;19932;-43
2022/09/10 10:55:22;;;;;;;;;;;;;;;16.68;100.00;101015.78;5034241;28;19912;-42
2022/09/10 10:58:03;;;;;;;;;;;;;;;16.70;100.00;101038.00;5034189;28;19944;-42
2022/09/10 11:00:34;;;;;;;;;;;;;;;16.72;100.00;101037.81;5032988;28;20575;-46
2022/09/10 11:03:20;;;;;;;;;;;;;;;16.74;100.00;101038.44;5031263;28;19912;-43
2022/09/10 11:05:47;;;;;;;;;;;;;;;16.76;100.00;101039.91;5030808;28;19927;-44
2022/09/10 11:08:19;;;;;;;;;;;;;;;16.83;100.00;101036.41;5019255;28;19909;-42
2022/09/10 11:10:46;;;;;;;;;;;;;;;16.93;100.00;101040.44;5019986;28;19927;-44
2022/09/10 11:13:18;;;;;;;;;;;;;;;16.99;100.00;101030.75;5031382;28;19970;-48
2022/09/10 11:15:47;;;;;;;;;;;;;;;17.09;100.00;101036.63;5027381;28;19932;-43
2022/09/10 11:18:21;;;;;;;;;;;;;;;17.20;100.00;101032.50;5021417;28;20383;-47
2022/09/10 11:21:09;;;;;;;;;;;;;;;17.32;100.00;101033.59;5024267;28;20003;-46
2022/09/10 11:24:06;;;;;;;;;;;;;;;17.40;100.00;101031.78;5013580;28;19924;-44
2022/09/10 11:26:53;;;;;;;;;;;;;;;17.50;100.00;101032.22;5020234;28;20298;-45
2022/09/10 11:29:33;;;;;;;;;;;;;;;17.59;100.00;101028.31;5026709;28;20238;-45
2022/09/10 11:32:03;;;;;;;;;;;;;;;17.70;100.00;101032.28;5020813;28;19952;-46
2022/09/10 11:34:43;;;;;;;;;;;;;;;18.06;100.00;101041.97;5017190;28;20006;-45
2022/09/10 11:37:14;;;;;;;;;;;;;;;18.65;100.00;101037.56;5016965;28;20338;-48
2022/09/10 11:39:43;;;;;;;;;;;;;;;19.26;100.00;101041.81;5017578;28;20490;-45
2022/09/10 11:42:15;;;;;;;;;;;;;;;19.68;100.00;101039.56;5021485;28;20624;-45
2022/09/10 11:44:59;;;;;;;;;;;;;;;19.72;100.00;101026.41;5015176;28;19917;-45
2022/09/10 11:47:37;;;;;;;;;;;;;;;19.56;100.00;101020.44;5017523;28;19947;-46
2022/09/10 11:50:21;;;;;;;;;;;;;;;19.33;100.00;101030.97;5017980;28;19989;-43
2022/09/10 11:52:47;;;;;;;;;;;;;;;18.99;100.00;101039.22;5016182;28;20023;-47
2022/09/10 11:55:13;;;;;;;;;;;;;;;18.87;100.00;101037.38;5015956;28;20408;-41
2022/09/10 11:57:47;;;;;;;;;;;;;;;18.88;100.00;101041.75;5015911;28;19991;-47
2022/09/10 12:00:16;;;;;;;;;;;;;;;19.09;100.00;101044.19;5016228;28;20312;-44
2022/09/10 12:03:01;;;;;;;;;;;;;;;19.51;100.00;101041.13;5015400;28;19909;-43
2022/09/10 12:05:29;;;;;;;;;;;;;;;19.91;100.00;101043.66;5014230;28;19917;-43
2022/09/10 12:07:55;;;;;;;;;;;;;;;20.12;100.00;101046.00;5016214;28;19920;-49
2022/09/10 12:10:39;;;;;;;;;;;;;;;20.15;100.00;101042.03;5032552;28;19996;-44
2022/09/10 12:13:08;;;;;;;;;;;;;;;20.12;100.00;101042.44;5036169;28;19962;-44
2022/09/10 12:15:34;;;;;;;;;;;;;;;20.36;100.00;101029.94;5035248;28;20411;-44
2022/09/10 12:18:15;;;;;;;;;;;;;;;20.79;100.00;101053.63;5035083;28;19975;-46
2022/09/10 12:20:43;;;;;;;;;;;;;;;21.26;100.00;101050.38;5033752;28;19909;-44
2022/09/10 12:23:16;;;;;;;;;;;;;;;21.46;100.00;101060.19;5035874;28;19919;-47
2022/09/10 12:25:41;;;;;;;;;;;;;;;21.41;100.00;101060.88;5035473;28;19996;-44
2022/09/10 12:28:26;;;;;;;;;;;;;;;21.05;100.00;101060.63;5035962;28;20000;-47
2022/09/10 12:30:57;;;;;;;;;;;;;;;20.57;100.00;101058.59;5034424;28;19958;-46
2022/09/10 12:33:24;;;;;;;;;;;;;;;20.36;100.00;101076.06;5032921;28;19973;-46
2022/09/10 12:35:50;;;;;;;;;;;;;;;20.29;100.00;101069.88;5033618;28;19932;-46